Time;durP1;ratioP1;P1;durP2;ratioP2;P2;SDS_P1;SDS_P2;PMS_P1;PMS_P2;Temp;Humidity;BMP_temperature;BMP_pressure;BME280_temperature;BME280_humidity;BME280_pressure;Samples;Min_cycle;Max_cycle;Signal;HPM_P1;HPM_P2
2021/12/16 00:03:17;;;;;;;54.30;31.70;;;10.10;99.90;;;;;;5072649;28;20090;-75
2021/12/16 00:08:30;;;;;;;52.03;31.52;;;10.10;99.90;;;;;;5069004;28;20447;-74
2021/12/16 00:11:12;;;;;;;52.85;32.85;;;10.10;99.90;;;;;;5051272;28;20029;-75
2021/12/16 00:30:35;;;;;;;54.92;33.15;;;10.00;99.90;;;;;;5052559;28;20036;-75
2021/12/16 00:33:16;;;;;;;52.20;30.58;;;10.10;99.90;;;;;;5050661;28;20037;-74
2021/12/16 00:35:45;;;;;;;53.85;30.88;;;10.00;99.90;;;;;;5053259;28;20037;-75
2021/12/16 00:38:11;;;;;;;52.38;32.42;;;10.10;99.90;;;;;;5055230;28;20029;-75
2021/12/16 00:40:40;;;;;;;50.63;33.05;;;10.30;99.90;;;;;;5055007;28;20386;-75
2021/12/16 00:43:18;;;;;;;55.30;31.88;;;10.20;99.90;;;;;;5056406;28;20040;-75
2021/12/16 00:46:10;;;;;;;52.53;31.58;;;10.20;99.90;;;;;;5056346;28;20094;-74
2021/12/16 00:49:03;;;;;;;51.58;33.65;;;10.20;99.90;;;;;;5054705;28;20044;-75
2021/12/16 00:54:12;;;;;;;53.10;31.02;;;10.20;99.90;;;;;;5055991;28;20021;-75
2021/12/16 00:56:39;;;;;;;54.70;32.10;;;10.20;99.90;;;;;;5054874;28;20032;-75
2021/12/16 00:59:08;;;;;;;56.65;32.63;;;10.30;99.90;;;;;;5054765;28;20075;-74
2021/12/16 01:35:02;;;;;;;59.80;33.38;;;10.20;99.90;;;;;;5074066;28;20476;-74
2021/12/16 01:46:00;;;;;;;58.08;31.33;;;10.20;99.90;;;;;;5073824;28;20064;-74
2021/12/16 01:51:17;;;;;;;53.65;32.17;;;10.10;99.90;;;;;;5073578;28;20033;-75
2021/12/16 01:59:02;;;;;;;58.90;32.53;;;10.40;99.90;;;;;;5075194;28;20024;-74
2021/12/16 02:01:32;;;;;;;55.80;32.05;;;10.40;99.90;;;;;;5057042;28;20020;-75
2021/12/16 02:04:15;;;;;;;54.63;32.70;;;10.20;99.90;;;;;;5073626;28;20063;-75
2021/12/16 02:09:22;;;;;;;60.55;34.00;;;10.10;99.90;;;;;;5065880;28;20047;-75
2021/12/16 02:12:01;;;;;;;61.35;35.47;;;10.10;99.90;;;;;;5073054;28;20029;-75
2021/12/16 02:36:30;;;;;;;56.17;32.03;;;10.20;99.90;;;;;;5074047;28;20020;-75
2021/12/16 02:39:03;;;;;;;54.67;34.60;;;10.30;99.90;;;;;;5069799;28;20029;-75
2021/12/16 02:41:29;;;;;;;61.95;34.00;;;10.40;99.90;;;;;;5068828;28;20051;-74
2021/12/16 02:44:13;;;;;;;53.50;33.50;;;10.30;99.90;;;;;;5058940;28;20095;-75
2021/12/16 02:49:34;;;;;;;59.27;32.50;;;10.10;99.90;;;;;;5071867;28;20063;-74
2021/12/16 02:52:00;;;;;;;55.38;32.38;;;10.30;99.90;;;;;;5073894;28;20437;-75
2021/12/16 02:54:27;;;;;;;53.20;32.95;;;10.20;99.90;;;;;;5071871;28;20025;-74
2021/12/16 02:56:54;;;;;;;57.47;33.17;;;10.10;99.90;;;;;;5072471;28;20035;-74
2021/12/16 02:59:27;;;;;;;52.40;32.85;;;10.20;99.90;;;;;;5073611;28;20020;-75
2021/12/16 03:01:56;;;;;;;56.45;32.65;;;10.20;99.90;;;;;;5072510;28;20370;-75
2021/12/16 03:04:26;;;;;;;62.72;34.97;;;10.20;99.90;;;;;;5071254;28;20025;-75
2021/12/16 03:06:56;;;;;;;60.40;33.85;;;10.20;99.90;;;;;;5072120;28;20029;-75
2021/12/16 03:10:00;;;;;;;61.75;33.45;;;10.10;99.90;;;;;;5059957;28;20052;-75
2021/12/16 03:15:19;;;;;;;61.33;34.90;;;10.10;99.90;;;;;;5052326;28;20086;-75
2021/12/16 03:21:07;;;;;;;57.15;32.65;;;10.40;99.90;;;;;;5062840;28;20048;-75
2021/12/16 03:23:48;;;;;;;;;;;10.40;99.90;;;;;;5073330;28;20079;-75
2021/12/16 03:26:58;;;;;;;59.05;33.67;;;10.30;99.90;;;;;;5072057;28;20326;-75
2021/12/16 03:32:59;;;;;;;59.87;34.13;;;10.20;99.90;;;;;;5072136;28;20393;-74
2021/12/16 03:38:00;;;;;;;55.75;32.83;;;10.10;99.90;;;;;;5073020;28;20078;-75
2021/12/16 03:40:27;;;;;;;59.15;33.42;;;10.10;99.90;;;;;;5073348;28;20391;-75
2021/12/16 03:43:00;;;;;;;57.28;34.38;;;10.00;99.90;;;;;;5071659;28;20020;-75
2021/12/16 03:48:30;;;;;;;52.33;34.63;;;10.10;99.90;;;;;;5071136;28;20559;-75
2021/12/16 03:50:56;;;;;;;65.43;34.93;;;10.20;99.90;;;;;;5055269;28;20032;-74
2021/12/16 03:53:23;;;;;;;61.17;34.47;;;10.50;99.90;;;;;;5071520;28;20031;-75
2021/12/16 03:55:50;;;;;;;63.15;34.97;;;10.40;99.90;;;;;;5070890;28;20035;-75
2021/12/16 03:58:16;;;;;;;61.15;36.50;;;10.40;99.90;;;;;;5071661;28;20021;-75
2021/12/16 04:00:54;;;;;;;62.47;34.65;;;10.50;99.90;;;;;;5071495;28;20048;-75
2021/12/16 04:03:20;;;;;;;62.40;33.95;;;10.50;99.90;;;;;;5071405;28;20024;-74
2021/12/16 04:05:47;;;;;;;52.53;32.97;;;10.30;99.90;;;;;;5071626;28;20157;-74
2021/12/16 04:08:15;;;;;;;53.03;32.58;;;10.30;99.90;;;;;;5068217;28;20104;-75
2021/12/16 04:11:01;;;;;;;57.90;35.13;;;10.30;99.90;;;;;;5035704;28;20127;-75
2021/12/16 04:13:36;;;;;;;57.78;35.10;;;10.30;99.90;;;;;;5051326;28;20550;-75
2021/12/16 04:16:04;;;;;;;61.00;35.55;;;10.30;99.90;;;;;;5051236;28;20044;-74
2021/12/16 04:18:31;;;;;;;53.92;33.90;;;10.30;99.90;;;;;;5051056;28;20462;-75
2021/12/16 04:20:58;;;;;;;62.58;35.67;;;10.20;99.90;;;;;;5034803;28;20124;-75
2021/12/16 04:23:24;;;;;;;58.97;34.67;;;10.10;99.90;;;;;;5051245;28;20113;-75
2021/12/16 04:25:49;;;;;;;52.45;34.92;;;10.10;99.90;;;;;;5058951;28;20040;-74
2021/12/16 04:28:26;;;;;;;65.60;36.00;;;10.20;99.90;;;;;;5071375;28;20033;-74
2021/12/16 04:30:54;;;;;;;60.25;35.30;;;10.20;99.90;;;;;;5071058;28;20036;-75
2021/12/16 04:33:23;;;;;;;54.97;34.42;;;10.20;99.90;;;;;;5071198;28;20021;-74
2021/12/16 04:35:49;;;;;;;57.15;34.63;;;10.20;99.90;;;;;;5071703;28;20097;-76
2021/12/16 04:38:16;;;;;;;55.40;34.35;;;10.10;99.90;;;;;;5070986;28;20020;-74
2021/12/16 04:40:45;;;;;;;55.75;34.08;;;10.10;99.90;;;;;;5071300;28;20017;-73
2021/12/16 04:43:18;;;;;;;59.88;34.88;;;10.10;99.90;;;;;;5071155;28;20111;-75
2021/12/16 04:46:10;;;;;;;68.25;34.78;;;10.00;99.90;;;;;;5071205;28;20068;-74
2021/12/16 04:48:38;;;;;;;;;;;10.10;99.90;;;;;;5071425;28;20063;-74
2021/12/16 04:51:07;;;;;;;63.85;34.63;;;10.10;99.90;;;;;;5071139;28;19916;-75
2021/12/16 04:53:36;;;;;;;60.53;35.17;;;10.10;99.90;;;;;;5070924;28;20029;-75
2021/12/16 04:56:03;;;;;;;68.65;35.15;;;10.10;99.90;;;;;;5071122;28;20473;-75
2021/12/16 04:58:38;;;;;;;67.60;36.97;;;10.10;99.90;;;;;;5055338;28;20071;-74
2021/12/16 05:01:05;;;;;;;66.72;35.75;;;10.20;99.90;;;;;;5070600;28;20492;-75
2021/12/16 05:03:40;;;;;;;66.75;35.53;;;10.10;99.90;;;;;;5069764;28;20020;-74
2021/12/16 05:06:07;;;;;;;55.55;33.20;;;10.10;99.90;;;;;;5071217;28;20024;-75
2021/12/16 05:08:33;;;;;;;61.53;34.47;;;10.10;99.90;;;;;;5050835;28;20029;-75
2021/12/16 05:11:12;;;;;;;62.50;37.53;;;10.10;99.90;;;;;;5050901;28;20397;-75
2021/12/16 05:13:42;;;;;;;61.47;35.70;;;10.10;99.90;;;;;;5050822;28;20047;-74
2021/12/16 05:16:10;;;;;;;59.25;35.90;;;10.20;99.90;;;;;;5067269;28;20366;-74
2021/12/16 05:18:42;;;;;;;62.85;35.13;;;10.30;99.90;;;;;;5034736;28;20025;-75
2021/12/16 05:21:36;;;;;;;59.38;36.40;;;10.20;99.90;;;;;;5050819;28;20378;-75
2021/12/16 05:26:47;;;;;;;59.90;34.95;;;10.20;99.90;;;;;;5070027;28;20527;-74
2021/12/16 05:29:13;;;;;;;62.40;35.70;;;10.30;99.90;;;;;;5075304;28;20056;-74
2021/12/16 05:31:42;;;;;;;61.88;35.50;;;10.30;99.90;;;;;;5074342;28;20028;-75
2021/12/16 05:34:08;;;;;;;57.88;34.55;;;10.20;99.90;;;;;;5074213;28;20094;-74
2021/12/16 05:36:37;;;;;;;61.42;35.55;;;10.10;99.90;;;;;;5074361;28;20059;-75
2021/12/16 05:39:05;;;;;;;65.95;36.92;;;10.00;99.90;;;;;;5074215;28;20465;-74
2021/12/16 05:41:40;;;;;;;64.57;35.83;;;10.00;99.90;;;;;;5073791;28;20060;-74
2021/12/16 05:44:06;;;;;;;68.13;37.53;;;10.00;99.90;;;;;;5057296;28;20094;-74
2021/12/16 05:46:33;;;;;;;66.65;36.35;;;10.10;99.90;;;;;;5075174;28;20025;-75
2021/12/16 05:49:01;;;;;;;67.18;37.15;;;10.30;99.90;;;;;;5073859;28;20078;-75
2021/12/16 05:51:43;;;;;;;74.00;37.55;;;10.40;99.90;;;;;;5075144;28;20477;-74
2021/12/16 05:54:10;;;;;;;63.47;37.78;;;10.30;99.90;;;;;;5075268;28;20060;-75
2021/12/16 05:56:46;;;;;;;63.08;34.35;;;10.20;99.90;;;;;;5073711;28;20050;-75
2021/12/16 05:59:13;;;;;;;67.28;35.40;;;10.30;99.90;;;;;;5056970;28;20021;-74
2021/12/16 06:01:42;;;;;;;71.57;39.17;;;10.50;99.90;;;;;;5073629;28;20384;-75
2021/12/16 06:04:08;;;;;;;72.82;36.45;;;10.30;99.90;;;;;;5073670;28;20028;-75
2021/12/16 06:06:35;;;;;;;63.33;35.30;;;10.30;99.90;;;;;;5073755;28;20060;-74
2021/12/16 06:09:04;;;;;;;62.75;34.58;;;10.20;99.90;;;;;;5053761;28;20445;-75
2021/12/16 06:11:32;;;;;;;59.85;35.53;;;10.00;99.90;;;;;;5054605;28;20041;-75
2021/12/16 06:27:33;;;;;;;57.58;35.70;;;10.30;99.90;;;;;;5054274;28;20071;-74
2021/12/16 06:29:58;;;;;;;57.95;35.30;;;10.20;99.90;;;;;;5053436;28;20370;-75
2021/12/16 06:32:26;;;;;;;69.07;35.83;;;10.10;99.90;;;;;;5054306;28;20029;-74
2021/12/16 06:34:53;;;;;;;65.03;34.47;;;10.30;99.90;;;;;;5051789;28;20444;-74
2021/12/16 06:37:19;;;;;;;61.42;34.78;;;10.50;99.90;;;;;;5054400;28;20075;-75
2021/12/16 06:39:45;;;;;;;59.28;34.55;;;10.50;99.90;;;;;;5053139;28;20495;-75
2021/12/16 06:42:43;;;;;;;70.15;35.22;;;10.40;99.90;;;;;;5052434;28;20246;-75
2021/12/16 06:45:17;;;;;;;68.75;35.00;;;10.30;99.90;;;;;;5036068;28;20501;-74
2021/12/16 06:47:51;;;;;;;71.65;34.90;;;10.20;99.90;;;;;;5053980;28;20088;-74
2021/12/16 06:50:35;;;;;;;77.78;35.65;;;10.30;99.90;;;;;;5053067;28;20432;-75
2021/12/16 06:53:03;;;;;;;67.20;36.63;;;10.50;99.90;;;;;;5052531;28;20386;-75
2021/12/16 06:55:43;;;;;;;59.58;35.75;;;10.40;99.90;;;;;;5053884;28;20107;-75
2021/12/16 06:58:35;;;;;;;61.03;34.17;;;10.20;99.90;;;;;;5053810;28;20493;-74
2021/12/16 07:01:07;;;;;;;64.53;34.45;;;10.10;99.90;;;;;;5053545;28;20103;-74
2021/12/16 07:03:45;;;;;;;69.38;35.13;;;10.30;99.90;;;;;;5053592;28;20082;-75
2021/12/16 07:06:12;;;;;;;65.93;36.38;;;10.50;99.90;;;;;;5053730;28;20108;-75
2021/12/16 07:08:38;;;;;;;60.88;35.75;;;10.40;99.90;;;;;;5059842;28;20034;-75
2021/12/16 07:11:04;;;;;;;68.45;35.80;;;10.60;99.90;;;;;;5073651;28;20078;-74
2021/12/16 07:13:36;;;;;;;53.47;33.03;;;10.50;99.90;;;;;;5073553;28;20021;-74
2021/12/16 07:16:02;;;;;;;65.22;35.75;;;10.70;99.90;;;;;;5073565;28;20037;-75
2021/12/16 07:18:28;;;;;;;63.15;34.70;;;10.70;99.90;;;;;;5069850;28;20019;-74
2021/12/16 07:20:54;;;;;;;59.78;34.90;;;10.60;99.90;;;;;;5066083;28;20397;-75
2021/12/16 07:23:20;;;;;;;58.70;33.85;;;10.30;99.90;;;;;;5053718;28;20024;-74
2021/12/16 07:25:45;;;;;;;63.38;36.15;;;10.10;99.90;;;;;;5072351;28;20044;-73
2021/12/16 07:28:11;;;;;;;60.70;33.97;;;10.20;99.90;;;;;;5073108;28;20017;-74
2021/12/16 07:30:42;;;;;;;66.90;35.47;;;10.20;99.90;;;;;;5073200;28;20485;-74
2021/12/16 07:33:10;;;;;;;61.45;35.05;;;10.20;99.90;;;;;;5072245;28;20033;-75
2021/12/16 07:35:37;;;;;;;67.85;35.95;;;10.40;99.90;;;;;;5072972;28;20048;-74
2021/12/16 07:38:03;;;;;;;66.80;34.78;;;10.60;99.90;;;;;;5072316;28;20074;-75
2021/12/16 07:40:31;;;;;;;59.15;33.95;;;10.60;99.90;;;;;;5054588;28;20362;-74
2021/12/16 07:45:27;;;;;;;64.53;34.20;;;10.50;99.90;;;;;;5072291;28;20047;-75
2021/12/16 07:47:54;;;;;;;60.83;33.75;;;10.70;99.90;;;;;;5071132;28;20023;-74
2021/12/16 07:50:19;;;;;;;63.92;35.15;;;10.50;99.90;;;;;;5052900;28;20036;-74
2021/12/16 07:52:45;;;;;;;60.83;35.42;;;10.50;99.90;;;;;;5060320;28;20021;-74
2021/12/16 07:55:14;;;;;;;66.25;35.47;;;10.40;99.90;;;;;;5051933;28;20098;-74
2021/12/16 07:57:40;;;;;;;64.97;35.85;;;10.40;99.90;;;;;;5051924;28;20552;-74
2021/12/16 08:00:11;;;;;;;53.38;35.72;;;10.60;99.90;;;;;;5052296;28;20036;-72
2021/12/16 08:02:38;;;;;;;63.10;33.95;;;10.60;99.90;;;;;;5052040;28;20028;-73
2021/12/16 08:05:07;;;;;;;56.70;34.58;;;10.50;99.90;;;;;;5052415;28;20036;-72
2021/12/16 08:07:33;;;;;;;64.65;34.05;;;10.30;99.90;;;;;;5050825;28;20029;-73
2021/12/16 08:09:59;;;;;;;61.40;35.75;;;10.30;99.90;;;;;;5069211;28;20466;-73
2021/12/16 08:12:25;;;;;;;66.82;36.15;;;10.20;99.90;;;;;;5072464;28;20521;-73
2021/12/16 08:14:51;;;;;;;62.25;35.42;;;10.10;99.90;;;;;;5070907;28;20123;-73
2021/12/16 08:17:17;;;;;;;67.93;36.67;;;10.10;99.90;;;;;;5072107;28;20433;-73
2021/12/16 08:19:45;;;;;;;64.00;35.22;;;10.20;99.90;;;;;;5071815;28;20052;-73
2021/12/16 08:22:12;;;;;;;62.90;35.33;;;10.40;99.90;;;;;;5070866;28;20062;-75
2021/12/16 08:24:38;;;;;;;56.78;34.25;;;10.60;99.90;;;;;;5071614;28;20036;-73
2021/12/16 08:27:05;;;;;;;67.60;35.28;;;10.80;99.90;;;;;;5071977;28;20354;-73
2021/12/16 08:29:31;;;;;;;70.75;34.78;;;10.90;99.90;;;;;;5070437;28;20475;-73
2021/12/16 08:31:57;;;;;;;54.17;32.38;;;10.90;99.90;;;;;;5056957;28;20021;-75
2021/12/16 08:34:25;;;;;;;60.08;34.30;;;11.00;99.90;;;;;;5064245;28;20082;-73
2021/12/16 08:36:51;;;;;;;58.97;34.33;;;11.20;99.90;;;;;;5070084;28;20033;-73
2021/12/16 08:39:17;;;;;;;63.15;33.85;;;11.30;99.90;;;;;;5070180;28;20052;-73
2021/12/16 08:41:47;;;;;;;62.67;33.17;;;11.00;99.90;;;;;;5071849;28;20035;-73
2021/12/16 08:44:13;;;;;;;62.15;32.95;;;10.90;99.90;;;;;;5052691;28;20044;-74
2021/12/16 08:46:42;;;;;;;67.07;33.72;;;10.90;99.90;;;;;;5050306;28;20035;-73
2021/12/16 08:49:09;;;;;;;71.05;34.83;;;10.90;99.90;;;;;;5064824;28;20082;-74
2021/12/16 08:51:40;;;;;;;60.65;32.10;;;11.10;99.90;;;;;;5071384;28;20116;-73
2021/12/16 08:54:06;;;;;;;65.93;35.08;;;11.10;99.90;;;;;;5071626;28;20067;-75
2021/12/16 08:56:33;;;;;;;57.75;34.72;;;11.20;99.90;;;;;;5072111;28;20024;-73
2021/12/16 08:59:00;;;;;;;64.30;33.75;;;11.20;99.90;;;;;;5074276;28;20123;-75
2021/12/16 09:01:28;;;;;;;61.53;35.72;;;11.20;99.90;;;;;;5075391;28;20012;-76
2021/12/16 09:03:56;;;;;;;67.38;36.08;;;11.20;99.90;;;;;;5074077;28;20032;-76
2021/12/16 09:06:22;;;;;;;71.25;39.83;;;11.30;99.90;;;;;;5073162;28;20025;-75
2021/12/16 09:08:49;;;;;;;58.53;33.13;;;11.40;99.90;;;;;;5067167;28;20032;-76
2021/12/16 09:11:20;;;;;;;61.13;35.63;;;11.40;99.90;;;;;;5055020;28;20068;-76
2021/12/16 09:13:48;;;;;;;69.82;40.70;;;11.20;99.90;;;;;;5069977;28;20377;-76
2021/12/16 09:16:18;;;;;;;57.75;35.72;;;11.00;99.90;;;;;;5074108;28;20023;-77
2021/12/16 09:18:44;;;;;;;68.30;36.95;;;11.00;99.90;;;;;;5075672;28;20404;-76
2021/12/16 09:21:15;;;;;;;56.65;35.90;;;11.20;99.90;;;;;;5074042;28;20024;-76
2021/12/16 09:23:43;;;;;;;70.35;37.13;;;11.30;99.90;;;;;;5075597;28;20052;-77
2021/12/16 09:26:09;;;;;;;65.22;34.15;;;11.40;99.90;;;;;;5075442;28;20116;-77
2021/12/16 09:28:37;;;;;;;69.55;34.13;;;11.30;99.90;;;;;;5075680;28;20116;-77
2021/12/16 09:31:10;;;;;;;65.68;34.88;;;11.60;99.90;;;;;;5075542;28;20419;-77
2021/12/16 09:33:36;;;;;;;62.90;33.45;;;11.30;99.90;;;;;;5075613;28;20492;-76
2021/12/16 09:36:03;;;;;;;61.78;34.15;;;11.10;99.90;;;;;;5075283;28;20115;-76
2021/12/16 09:38:29;;;;;;;59.25;34.17;;;11.30;99.90;;;;;;5075599;28;20024;-76
2021/12/16 09:40:56;;;;;;;65.03;35.38;;;11.20;99.90;;;;;;5074090;28;20032;-77
2021/12/16 09:43:29;;;;;;;88.03;52.70;;;11.40;99.90;;;;;;5075448;28;20028;-75
2021/12/16 09:45:58;;;;;;;92.60;47.70;;;11.40;99.90;;;;;;5073911;28;20098;-76
2021/12/16 09:48:25;;;;;;;92.18;50.00;;;11.20;99.90;;;;;;5055582;28;20032;-76
2021/12/16 09:50:52;;;;;;;67.85;39.92;;;11.50;99.90;;;;;;5055089;28;20091;-75
2021/12/16 09:53:19;;;;;;;73.60;40.67;;;11.60;99.90;;;;;;5067219;28;20035;-76
2021/12/16 09:55:50;;;;;;;70.32;43.85;;;11.60;99.90;;;;;;5058902;28;20025;-76
2021/12/16 09:58:16;;;;;;;60.75;35.72;;;11.60;99.90;;;;;;5053690;28;20066;-75
2021/12/16 10:00:42;;;;;;;61.05;32.75;;;11.40;99.90;;;;;;5054662;28;20405;-75
2021/12/16 10:03:08;;;;;;;51.05;31.33;;;11.30;99.90;;;;;;5054952;28;20025;-76
2021/12/16 10:05:34;;;;;;;55.83;33.53;;;11.40;99.90;;;;;;5053851;28;20048;-75
2021/12/16 10:08:04;;;;;;;50.80;31.98;;;11.30;99.90;;;;;;5054494;28;20103;-76
2021/12/16 10:10:31;;;;;;;62.55;34.85;;;11.40;99.90;;;;;;5074975;28;20044;-76
2021/12/16 10:13:00;;;;;;;59.08;33.63;;;11.60;99.90;;;;;;5074925;28;20115;-76
2021/12/16 10:18:16;;;;;;;57.65;33.10;;;11.70;99.90;;;;;;5076602;28;20036;-76
2021/12/16 10:20:48;;;;;;;60.53;31.60;;;11.70;99.90;;;;;;5073078;28;20063;-76
2021/12/16 10:23:22;;;;;;;51.05;31.02;;;12.00;99.90;;;;;;5074346;28;20028;-76
2021/12/16 10:25:53;;;;;;;62.70;34.38;;;12.00;99.90;;;;;;5073792;28;20044;-76
2021/12/16 10:28:29;;;;;;;59.75;31.30;;;12.00;99.90;;;;;;5074286;28;20036;-76
2021/12/16 10:31:02;;;;;;;54.65;29.52;;;12.10;99.90;;;;;;5072749;28;20039;-75
2021/12/16 10:33:33;;;;;;;50.90;30.58;;;12.10;99.90;;;;;;5073915;28;20025;-76
2021/12/16 10:36:35;;;;;;;43.45;27.40;;;12.40;99.90;;;;;;5072854;28;20468;-76
2021/12/16 10:39:06;;;;;;;53.90;30.50;;;12.40;99.90;;;;;;5074341;28;20086;-76
2021/12/16 10:41:42;;;;;;;46.90;26.67;;;13.60;99.90;;;;;;5072353;28;20036;-76
2021/12/16 10:44:19;;;;;;;40.72;23.75;;;14.30;99.90;;;;;;5074275;28;20218;-75
2021/12/16 10:47:00;;;;;;;34.72;21.40;;;14.30;99.90;;;;;;5073499;28;20039;-76
2021/12/16 10:49:31;;;;;;;32.78;20.92;;;14.30;99.90;;;;;;5073814;28;20476;-76
2021/12/16 10:52:02;;;;;;;34.97;22.05;;;14.80;99.90;;;;;;5072531;28;20036;-75
2021/12/16 10:54:29;;;;;;;46.00;23.20;;;14.80;99.90;;;;;;5073353;28;20043;-75
2021/12/16 10:57:26;;;;;;;32.35;21.92;;;15.30;99.90;;;;;;5073393;28;20017;-75
2021/12/16 10:59:58;;;;;;;37.35;21.58;;;15.70;99.90;;;;;;5053388;28;20381;-76
2021/12/16 11:02:35;;;;;;;30.00;19.38;;;16.00;99.90;;;;;;5052875;28;20595;-76
2021/12/16 11:05:21;;;;;;;40.33;21.08;;;15.70;99.90;;;;;;5052472;28;20128;-76
2021/12/16 11:07:48;;;;;;;34.47;19.77;;;16.20;99.90;;;;;;5052902;28;20064;-75
2021/12/16 11:10:36;;;;;;;29.80;18.42;;;15.00;99.90;;;;;;5072916;28;20362;-76
2021/12/16 11:13:10;;;;;;;34.72;18.70;;;15.20;99.90;;;;;;5055161;28;20035;-76
2021/12/16 11:15:40;;;;;;;29.83;19.30;;;14.50;99.90;;;;;;5071311;28;20059;-76
2021/12/16 11:18:22;;;;;;;39.67;20.63;;;14.80;99.90;;;;;;5073018;28;20032;-76
2021/12/16 11:20:56;;;;;;;31.13;19.42;;;15.50;99.90;;;;;;5072226;28;20040;-76
2021/12/16 11:23:26;;;;;;;33.55;19.50;;;17.50;99.90;;;;;;5072409;28;20485;-75
2021/12/16 11:25:55;;;;;;;31.17;18.92;;;17.70;99.90;;;;;;5073126;28;20036;-75
2021/12/16 11:28:28;;;;;;;34.58;19.08;;;17.20;99.90;;;;;;5071930;28;20025;-75
2021/12/16 11:31:02;;;;;;;40.65;20.02;;;17.60;99.90;;;;;;5071968;28;20112;-75
2021/12/16 11:33:56;;;;;;;29.05;17.20;;;19.20;99.90;;;;;;5073057;28;20056;-76
2021/12/16 11:36:28;;;;;;;29.13;17.55;;;18.30;99.90;;;;;;5072518;28;20094;-76
2021/12/16 11:38:59;;;;;;;31.42;16.67;;;19.20;99.90;;;;;;5070707;28;20059;-75
2021/12/16 11:41:32;;;;;;;36.92;16.92;;;19.00;99.90;;;;;;5072722;28;20108;-74
2021/12/16 11:44:07;;;;;;;32.33;18.83;;;18.50;99.90;;;;;;5072537;28;20481;-74
2021/12/16 11:46:41;;;;;;;25.23;17.05;;;18.80;99.90;;;;;;5071042;28;20534;-76
2021/12/16 11:49:13;;;;;;;28.70;14.98;;;19.60;99.90;;;;;;5072670;28;20032;-75
2021/12/16 11:51:46;;;;;;;26.48;16.73;;;18.10;99.90;;;;;;5070416;28;20044;-76
2021/12/16 11:54:20;;;;;;;26.60;16.08;;;19.60;99.90;;;;;;5050517;28;20029;-75
2021/12/16 11:56:54;;;;;;;36.90;18.55;;;21.50;99.50;;;;;;5070218;28;20331;-76
2021/12/16 11:59:53;;;;;;;31.65;17.50;;;22.50;97.70;;;;;;5072641;28;20383;-74
2021/12/16 12:02:28;;;;;;;26.58;16.20;;;22.50;97.60;;;;;;5069957;28;20044;-75
2021/12/16 12:05:21;;;;;;;23.30;13.02;;;23.20;96.80;;;;;;5071155;28;20051;-75
2021/12/16 12:08:09;;;;;;;19.88;13.50;;;21.80;97.40;;;;;;5072926;28;20029;-76
2021/12/16 12:10:45;;;;;;;27.33;13.50;;;22.00;96.10;;;;;;5051944;28;20048;-75
2021/12/16 12:13:15;;;;;;;23.67;13.60;;;21.00;97.20;;;;;;5051973;28;20031;-75
2021/12/16 12:16:04;;;;;;;32.55;15.27;;;20.40;98.90;;;;;;5052200;28;20074;-75
2021/12/16 12:18:48;;;;;;;29.92;14.88;;;22.00;97.60;;;;;;5052137;28;20492;-74
2021/12/16 12:21:17;;;;;;;25.25;15.65;;;22.20;96.10;;;;;;5051826;28;20088;-77
2021/12/16 12:23:44;;;;;;;24.67;13.90;;;21.10;97.50;;;;;;5051315;28;20023;-76
2021/12/16 12:26:15;;;;;;;27.25;13.90;;;20.20;98.70;;;;;;5062338;28;20124;-76
2021/12/16 12:28:42;;;;;;;21.33;12.65;;;21.10;97.00;;;;;;5071175;28;20032;-76
2021/12/16 12:31:08;;;;;;;18.77;10.85;;;20.30;97.80;;;;;;5072144;28;20033;-77
2021/12/16 12:33:34;;;;;;;13.88;8.75;;;20.00;98.20;;;;;;5076304;28;20039;-76
2021/12/16 12:36:01;;;;;;;18.55;9.35;;;18.90;98.20;;;;;;5076699;28;20036;-77
2021/12/16 12:38:28;;;;;;;15.65;9.73;;;20.00;97.60;;;;;;5076458;28;20024;-76
2021/12/16 12:40:55;;;;;;;12.30;8.82;;;19.90;98.00;;;;;;5076522;28;20048;-76
2021/12/16 12:43:22;;;;;;;19.02;8.55;;;20.00;97.20;;;;;;5076545;28;20071;-77
2021/12/16 12:45:49;;;;;;;19.15;8.88;;;20.10;96.60;;;;;;5076007;28;20029;-77
2021/12/16 12:48:17;;;;;;;16.88;7.53;;;18.90;98.60;;;;;;5076507;28;20029;-77
2021/12/16 12:50:46;;;;;;;14.30;7.07;;;19.70;97.10;;;;;;5076814;28;20394;-77
2021/12/16 12:53:32;;;;;;;13.95;7.10;;;20.60;96.20;;;;;;5076414;28;20104;-76
2021/12/16 12:56:28;;;;;;;12.63;6.80;;;22.00;94.90;;;;;;5075999;28;20083;-75
2021/12/16 12:59:02;;;;;;;12.93;8.38;;;18.80;97.50;;;;;;5075527;28;20036;-76
2021/12/16 13:01:47;;;;;;;16.25;9.45;;;17.00;99.90;;;;;;5076114;28;20036;-76
2021/12/16 13:04:44;;;;;;;25.85;9.25;;;16.00;99.90;;;;;;5075954;28;20369;-75
2021/12/16 13:07:11;;;;;;;25.50;9.65;;;15.50;99.90;;;;;;5075753;28;20392;-76
2021/12/16 13:09:55;;;;;;;15.65;8.98;;;16.10;99.90;;;;;;5061220;28;20029;-76
2021/12/16 13:12:47;;;;;;;20.38;9.48;;;16.10;99.90;;;;;;5068746;28;20111;-77
2021/12/16 13:15:23;;;;;;;25.88;9.65;;;15.70;99.90;;;;;;5075912;28;20041;-77
2021/12/16 13:23:43;;;;;;;20.90;10.27;;;18.90;99.90;;;;;;5074470;28;20085;-76
2021/12/16 13:26:35;;;;;;;24.08;11.50;;;18.30;99.90;;;;;;5075522;28;20079;-77
2021/12/16 13:32:14;;;;;;;19.00;9.40;;;20.80;98.40;;;;;;5070581;28;20484;-77
2021/12/16 13:34:56;;;;;;;21.02;9.25;;;18.30;99.90;;;;;;5074135;28;20035;-76
2021/12/16 13:37:44;;;;;;;27.38;9.30;;;19.10;99.90;;;;;;5075669;28;20040;-76
2021/12/16 13:40:28;;;;;;;18.35;9.13;;;19.10;99.40;;;;;;5075323;28;20029;-76
2021/12/16 13:43:27;;;;;;;12.77;7.88;;;18.50;99.90;;;;;;5074439;28;20037;-76
2021/12/16 13:46:32;;;;;;;18.35;8.70;;;19.80;98.90;;;;;;5073711;28;20049;-75
2021/12/16 14:04:07;;;;;;;18.27;7.93;;;18.40;99.90;;;;;;5075228;28;20115;-77
2021/12/16 14:07:02;;;;;;;22.27;8.15;;;17.60;99.90;;;;;;5074914;28;20493;-75
2021/12/16 14:09:33;;;;;;;14.38;8.18;;;18.60;99.90;;;;;;5061419;28;20047;-77
2021/12/16 14:23:49;;;;;;;23.55;8.88;;;17.20;99.90;;;;;;5054517;28;20079;-76
2021/12/16 14:50:30;;;;;;;28.52;12.32;;;15.20;99.90;;;;;;5074630;28;20043;-76
2021/12/16 14:52:57;;;;;;;33.53;12.50;;;15.80;99.90;;;;;;5073662;28;20029;-76
2021/12/16 14:55:24;;;;;;;28.17;12.13;;;16.00;99.90;;;;;;5072819;28;20020;-74
2021/12/16 14:57:53;;;;;;;31.60;12.55;;;16.00;99.90;;;;;;5072607;28;20032;-74
2021/12/16 15:00:33;;;;;;;30.50;13.07;;;16.00;99.90;;;;;;5073831;28;20115;-76
2021/12/16 15:03:00;;;;;;;27.65;13.70;;;16.00;99.90;;;;;;5073470;28;20380;-75
2021/12/16 15:05:31;;;;;;;33.58;13.57;;;15.80;99.90;;;;;;5073615;28;20036;-75
2021/12/16 15:08:24;;;;;;;28.38;13.35;;;15.60;99.90;;;;;;5072745;28;20037;-76
2021/12/16 15:10:50;;;;;;;37.03;14.20;;;15.30;99.90;;;;;;5052215;28;20037;-75
2021/12/16 15:13:24;;;;;;;25.15;13.15;;;15.40;99.90;;;;;;5052361;28;20029;-76
2021/12/16 15:45:24;;;;;;;78.85;45.30;;;13.90;99.90;;;;;;5068383;28;20040;-73
2021/12/16 15:47:56;;;;;;;48.33;28.05;;;13.80;99.90;;;;;;5050813;28;20043;-77
2021/12/16 15:50:43;;;;;;;58.88;30.25;;;13.80;99.90;;;;;;5052142;28;20040;-75
2021/12/16 15:53:16;;;;;;;50.35;29.45;;;13.80;99.90;;;;;;5054516;28;20091;-75
2021/12/16 15:55:49;;;;;;;50.85;22.83;;;13.70;99.90;;;;;;5052645;28;20047;-77
2021/12/16 15:58:24;;;;;;;48.92;22.92;;;13.60;99.90;;;;;;5052177;28;20043;-73
2021/12/16 16:00:56;;;;;;;47.40;23.25;;;13.60;99.90;;;;;;5052305;28;20037;-76
2021/12/16 16:03:22;;;;;;;35.38;22.35;;;13.30;99.90;;;;;;5052348;28;20069;-76
2021/12/16 16:05:52;;;;;;;42.33;20.65;;;13.00;99.90;;;;;;5051555;28;20033;-76
2021/12/16 16:08:21;;;;;;;43.28;21.83;;;13.00;99.90;;;;;;5055579;28;20420;-75
2021/12/16 16:10:50;;;;;;;41.35;21.00;;;12.90;99.90;;;;;;5072393;28;20055;-76
2021/12/16 16:13:22;;;;;;;46.22;22.58;;;12.80;99.90;;;;;;5072220;28;20476;-76
2021/12/16 16:15:51;;;;;;;52.42;23.02;;;12.70;99.90;;;;;;5072458;28;20029;-76
2021/12/16 16:21:19;;;;;;;52.90;24.17;;;12.70;99.90;;;;;;5070134;28;20039;-79
2021/12/16 16:23:59;;;;;;;50.97;26.85;;;12.50;99.90;;;;;;5050478;28;20033;-76
2021/12/16 16:26:29;;;;;;;56.03;26.98;;;12.20;99.90;;;;;;5067356;28;20041;-77
2021/12/16 16:29:20;;;;;;;55.47;26.25;;;12.30;99.90;;;;;;5071605;28;20028;-74
2021/12/16 16:31:49;;;;;;;40.38;23.55;;;12.10;99.90;;;;;;5070143;28;20082;-75
2021/12/16 16:34:26;;;;;;;44.70;23.98;;;11.90;99.90;;;;;;5054808;28;20024;-76
2021/12/16 16:37:00;;;;;;;52.78;23.17;;;11.70;99.90;;;;;;5067237;28;20063;-77
2021/12/16 16:39:29;;;;;;;43.22;23.90;;;11.70;99.90;;;;;;5071450;28;20037;-76
2021/12/16 16:42:00;;;;;;;38.05;23.23;;;11.60;99.90;;;;;;5072175;28;20025;-77
2021/12/16 16:44:27;;;;;;;42.17;21.58;;;11.80;99.90;;;;;;5071278;28;20074;-76